Time;durP1;ratioP1;P1;durP2;ratioP2;P2;SDS_P1;SDS_P2;PMS_P1;PMS_P2;Temp;Humidity;BMP_temperature;BMP_pressure;BME280_temperature;BME280_humidity;BME280_pressure;Samples;Min_cycle;Max_cycle;Signal;HPM_P1;HPM_P2
2022/12/04 00:00:51;;;;;;;39.72;16.25;;;8.50;69.80;;;;;;7372269;19;20029;-77
2022/12/04 00:03:19;;;;;;;35.60;15.40;;;8.50;70.10;;;;;;7395857;19;20018;-77
2022/12/04 00:05:48;;;;;;;37.78;17.33;;;8.50;70.10;;;;;;7373143;19;20082;-77
2022/12/04 00:08:20;;;;;;;32.97;15.88;;;8.60;70.20;;;;;;7372932;19;20078;-77
2022/12/04 00:10:48;;;;;;;;;;;8.60;70.10;;;;;;7374764;19;20471;-77
2022/12/04 00:13:18;;;;;;;36.88;15.85;;;8.40;69.30;;;;;;7375267;19;19936;-77
2022/12/04 00:15:46;;;;;;;36.30;16.60;;;8.30;70.60;;;;;;7376860;19;20352;-77
2022/12/04 00:18:15;;;;;;;38.47;17.05;;;8.20;69.90;;;;;;7402888;19;20039;-77
2022/12/04 00:20:44;;;;;;;50.45;17.45;;;8.20;70.20;;;;;;7372934;19;20014;-77
2022/12/04 00:23:13;;;;;;;38.90;16.02;;;8.30;70.60;;;;;;7372105;19;20014;-77
2022/12/04 00:25:47;;;;;;;35.03;15.93;;;8.30;70.50;;;;;;7372956;19;20040;-77
2022/12/04 00:28:17;;;;;;;39.08;17.63;;;8.30;70.30;;;;;;7371215;19;20022;-77
2022/12/04 00:30:47;;;;;;;41.10;18.15;;;8.40;70.30;;;;;;7372894;19;20032;-77
2022/12/04 00:33:15;;;;;;;40.45;16.15;;;8.40;70.00;;;;;;7393658;19;20031;-77
2022/12/04 00:35:44;;;;;;;39.72;17.52;;;8.40;70.00;;;;;;7369300;19;20044;-77
2022/12/04 00:38:13;;;;;;;54.63;18.60;;;8.40;70.00;;;;;;7371895;19;20082;-78
2022/12/04 00:40:51;;;;;;;41.72;18.05;;;8.50;71.10;;;;;;7368129;19;20073;-78
2022/12/04 00:43:19;;;;;;;35.92;17.00;;;8.50;70.20;;;;;;7372827;19;20018;-77
2022/12/04 00:45:49;;;;;;;37.83;17.15;;;8.50;70.00;;;;;;7368912;19;20022;-76
2022/12/04 00:48:18;;;;;;;38.50;17.60;;;8.50;70.00;;;;;;7391976;19;20058;-77
2022/12/04 00:50:46;;;;;;;40.10;17.45;;;8.50;70.00;;;;;;7370844;19;20011;-78
2022/12/04 00:53:15;;;;;;;45.55;18.80;;;8.40;69.70;;;;;;7371161;19;20035;-77
2022/12/04 00:55:47;;;;;;;34.58;16.77;;;8.50;69.60;;;;;;7369441;19;20090;-77
2022/12/04 00:58:16;;;;;;;37.78;16.73;;;8.40;69.50;;;;;;7370506;19;20059;-77
2022/12/04 01:00:45;;;;;;;39.92;17.40;;;8.40;69.80;;;;;;7367241;19;20042;-77
2022/12/04 01:03:13;;;;;;;44.25;18.13;;;8.40;69.70;;;;;;7391296;19;20022;-76
2022/12/04 01:05:43;;;;;;;40.95;17.63;;;8.40;69.60;;;;;;7369337;19;20022;-77
2022/12/04 01:08:13;;;;;;;39.63;17.20;;;8.40;69.60;;;;;;7370338;19;20018;-76
2022/12/04 01:10:46;;;;;;;43.45;19.20;;;8.40;69.60;;;;;;7371580;19;20023;-76
2022/12/04 01:13:14;;;;;;;39.05;17.13;;;8.40;69.70;;;;;;7369441;19;20438;-77
2022/12/04 01:15:43;;;;;;;41.00;18.45;;;8.40;69.90;;;;;;7369887;19;20026;-77
2022/12/04 01:18:13;;;;;;;42.47;18.83;;;8.40;69.90;;;;;;7391968;19;20094;-77
2022/12/04 01:20:42;;;;;;;40.72;18.00;;;8.40;70.00;;;;;;7370874;19;20815;-77
2022/12/04 01:23:15;;;;;;;44.72;17.65;;;8.40;70.00;;;;;;7368898;19;20018;-77
2022/12/04 01:25:56;;;;;;;42.35;18.27;;;8.40;70.00;;;;;;7368603;19;20018;-76
2022/12/04 01:28:27;;;;;;;41.58;17.83;;;8.30;69.90;;;;;;7369316;19;20015;-76
2022/12/04 01:31:04;;;;;;;38.30;15.75;;;8.30;69.80;;;;;;7368541;19;20058;-76
2022/12/04 01:33:36;;;;;;;40.53;17.42;;;8.30;70.00;;;;;;7389718;19;20022;-76
2022/12/04 01:36:08;;;;;;;47.33;18.85;;;8.30;70.00;;;;;;7369629;19;20043;-76
2022/12/04 01:38:38;;;;;;;39.42;17.23;;;8.30;70.20;;;;;;7368729;19;20018;-76
2022/12/04 01:41:12;;;;;;;41.35;18.60;;;8.30;70.30;;;;;;7369260;19;20047;-77
2022/12/04 01:43:44;;;;;;;43.80;18.23;;;8.30;70.00;;;;;;7368032;19;20018;-76
2022/12/04 01:46:14;;;;;;;;;;;8.30;70.00;;;;;;7371169;19;20528;-78
2022/12/04 01:48:48;;;;;;;38.40;17.42;;;8.30;70.00;;;;;;7375532;19;19915;-80
2022/12/04 01:51:22;;;;;;;42.08;16.92;;;8.30;70.80;;;;;;7393537;19;20029;-77
2022/12/04 01:53:56;;;;;;;44.28;18.70;;;8.30;70.20;;;;;;7377621;19;20086;-79
2022/12/04 01:56:33;;;;;;;48.08;19.55;;;8.40;70.30;;;;;;7377083;19;20023;-80
2022/12/04 01:59:04;;;;;;;38.75;17.88;;;8.40;70.30;;;;;;7377425;19;20035;-81
2022/12/04 02:01:42;;;;;;;48.30;20.08;;;8.40;70.20;;;;;;7377504;19;20018;-80
2022/12/04 02:04:12;;;;;;;51.88;20.45;;;8.30;69.80;;;;;;7380671;19;20383;-80
2022/12/04 02:06:41;;;;;;;48.67;20.73;;;8.30;70.00;;;;;;7380047;19;20035;-81
2022/12/04 02:09:09;;;;;;;42.47;18.00;;;8.30;70.00;;;;;;7402512;19;20086;-80
2022/12/04 02:11:47;;;;;;;44.42;18.88;;;8.30;70.00;;;;;;7379607;19;20082;-80
2022/12/04 02:14:25;;;;;;;43.35;18.45;;;8.30;70.20;;;;;;7379045;19;20046;-79
2022/12/04 02:17:01;;;;;;;46.10;19.52;;;8.30;70.20;;;;;;7377137;19;20022;-79
2022/12/04 02:20:00;;;;;;;41.75;18.35;;;8.30;69.90;;;;;;7374024;19;20022;-79
2022/12/04 02:22:53;;;;;;;46.08;18.42;;;8.30;70.00;;;;;;7377352;19;20019;-79
2022/12/04 02:25:31;;;;;;;47.65;19.52;;;8.30;70.10;;;;;;7376339;19;20022;-79
2022/12/04 02:28:21;;;;;;;42.05;19.15;;;8.30;70.20;;;;;;7376392;19;20016;-79
2022/12/04 02:30:53;;;;;;;48.63;19.42;;;8.30;70.20;;;;;;7373200;19;20458;-78
2022/12/04 02:33:23;;;;;;;;;;;8.30;70.00;;;;;;7396408;19;20458;-79
2022/12/04 02:35:56;;;;;;;39.60;17.52;;;8.30;70.30;;;;;;7376078;19;19930;-79
2022/12/04 02:38:28;;;;;;;46.60;19.52;;;8.30;70.30;;;;;;7373677;19;20029;-79
2022/12/04 02:41:02;;;;;;;50.95;19.50;;;8.30;70.30;;;;;;7375535;19;20010;-79
2022/12/04 02:43:40;;;;;;;47.72;19.52;;;8.30;70.40;;;;;;7374664;19;20093;-79
2022/12/04 02:46:13;;;;;;;46.45;19.67;;;8.30;70.30;;;;;;7372507;19;20020;-79
2022/12/04 02:48:43;;;;;;;46.22;18.65;;;8.40;70.30;;;;;;7374217;19;20026;-78
2022/12/04 02:51:15;;;;;;;49.03;20.08;;;8.40;70.40;;;;;;7396765;19;20014;-79
2022/12/04 02:53:49;;;;;;;52.53;20.25;;;8.40;70.30;;;;;;7375746;19;20010;-79
2022/12/04 02:56:23;;;;;;;42.22;19.30;;;8.50;70.20;;;;;;7375343;19;20018;-79
2022/12/04 02:58:58;;;;;;;48.72;20.55;;;8.40;70.00;;;;;;7372905;19;20028;-79
2022/12/04 03:01:31;;;;;;;48.50;20.63;;;8.40;70.00;;;;;;7371004;19;20630;-79
2022/12/04 03:04:04;;;;;;;43.97;19.83;;;8.40;70.10;;;;;;7370384;19;20344;-79
2022/12/04 03:06:36;;;;;;;54.55;20.83;;;8.40;70.00;;;;;;7396229;19;20470;-79
2022/12/04 03:09:12;;;;;;;52.30;19.90;;;8.40;70.30;;;;;;7376130;19;20014;-79
2022/12/04 03:11:43;;;;;;;47.83;19.85;;;8.40;70.20;;;;;;7377958;19;20022;-79
2022/12/04 03:14:20;;;;;;;48.58;20.67;;;8.40;70.20;;;;;;7379270;19;20018;-79
2022/12/04 03:16:53;;;;;;;46.28;21.40;;;8.40;70.10;;;;;;7379798;19;20438;-80
2022/12/04 03:19:26;;;;;;;41.30;19.90;;;8.30;70.00;;;;;;7379936;19;20007;-79
2022/12/04 03:21:59;;;;;;;48.90;20.15;;;8.40;70.30;;;;;;7378048;19;20018;-78
2022/12/04 03:24:31;;;;;;;41.83;19.55;;;8.40;70.50;;;;;;7395370;19;20022;-79
2022/12/04 03:27:05;;;;;;;46.95;20.05;;;8.40;70.60;;;;;;7378289;19;20018;-80
2022/12/04 03:29:43;;;;;;;43.72;20.02;;;8.40;70.50;;;;;;7392345;19;20015;-79
2022/12/04 03:32:15;;;;;;;46.50;21.15;;;8.50;70.40;;;;;;7393216;19;20023;-79
2022/12/04 03:34:54;;;;;;;41.33;19.05;;;8.40;70.00;;;;;;7378555;19;20074;-80
2022/12/04 03:37:29;;;;;;;46.58;19.98;;;8.40;70.00;;;;;;7376687;19;20010;-79
2022/12/04 03:40:04;;;;;;;45.80;19.50;;;8.40;70.00;;;;;;7372508;19;20552;-79
2022/12/04 03:42:40;;;;;;;46.60;20.40;;;8.40;70.20;;;;;;7395668;19;20019;-79
2022/12/04 03:45:18;;;;;;;50.08;21.20;;;8.40;70.30;;;;;;7372406;19;20519;-79
2022/12/04 03:47:54;;;;;;;42.90;20.17;;;8.40;70.20;;;;;;7374925;19;20414;-79
2022/12/04 03:50:30;;;;;;;47.53;20.15;;;8.40;70.30;;;;;;7375821;19;20078;-79
2022/12/04 03:53:06;;;;;;;44.85;20.05;;;8.40;70.10;;;;;;7374264;19;20056;-79
2022/12/04 03:55:40;;;;;;;41.05;18.80;;;8.40;70.00;;;;;;7370695;19;20014;-78
2022/12/04 03:58:13;;;;;;;40.97;18.50;;;8.30;69.90;;;;;;7367200;19;20040;-78
2022/12/04 04:00:47;;;;;;;39.05;18.05;;;8.30;70.20;;;;;;7366559;19;20022;-78
2022/12/04 04:03:22;;;;;;;47.17;20.52;;;8.20;70.10;;;;;;7383992;19;20019;-79
2022/12/04 04:05:55;;;;;;;45.22;18.60;;;8.20;70.30;;;;;;7366449;19;20019;-79
2022/12/04 04:08:29;;;;;;;41.38;17.95;;;8.20;70.30;;;;;;7367461;19;20018;-79
2022/12/04 04:11:04;;;;;;;45.30;19.80;;;8.20;70.30;;;;;;7365420;19;20642;-79
2022/12/04 04:24:42;;;;;;;40.50;18.00;;;8.20;70.70;;;;;;7392645;19;20022;-79
2022/12/04 04:27:11;;;;;;;43.05;19.25;;;8.10;70.80;;;;;;7380166;19;20014;-79
2022/12/04 04:29:40;;;;;;;46.08;19.13;;;8.20;70.60;;;;;;7369427;19;20066;-78
2022/12/04 04:32:15;;;;;;;46.33;19.17;;;8.20;70.60;;;;;;7368212;19;20022;-79
2022/12/04 04:34:55;;;;;;;45.15;20.23;;;8.20;70.80;;;;;;7367318;19;20089;-79
2022/12/04 04:37:32;;;;;;;43.03;18.88;;;8.20;70.50;;;;;;7365176;19;20014;-79
2022/12/04 04:40:08;;;;;;;43.78;19.52;;;8.20;70.30;;;;;;7368176;19;20010;-79
2022/12/04 04:42:44;;;;;;;43.22;19.33;;;8.30;70.30;;;;;;7372894;19;20043;-78
2022/12/04 04:45:18;;;;;;;44.45;19.88;;;8.20;70.20;;;;;;7387326;19;20134;-78
2022/12/04 04:47:57;;;;;;;44.95;20.73;;;8.20;70.30;;;;;;7365755;19;20049;-79
2022/12/04 04:50:26;;;;;;;45.78;19.63;;;8.30;70.60;;;;;;7363656;19;20046;-79
2022/12/04 04:52:59;;;;;;;39.60;18.67;;;8.30;70.50;;;;;;7366190;19;20018;-78
2022/12/04 04:55:33;;;;;;;52.10;19.40;;;8.30;70.30;;;;;;7366842;19;20418;-79
2022/12/04 04:58:09;;;;;;;48.65;20.00;;;8.30;70.00;;;;;;7367721;19;20038;-78
2022/12/04 05:00:39;;;;;;;43.72;19.65;;;8.20;70.10;;;;;;7366249;19;20195;-78
2022/12/04 05:03:11;;;;;;;46.97;19.67;;;8.20;70.20;;;;;;7386277;19;20090;-78
2022/12/04 05:05:40;;;;;;;39.35;18.73;;;8.30;70.30;;;;;;7366431;19;20110;-79
2022/12/04 05:08:08;;;;;;;46.20;19.48;;;8.30;70.00;;;;;;7371024;19;20023;-78
2022/12/04 05:10:37;;;;;;;47.17;19.25;;;8.30;70.20;;;;;;7371014;19;20096;-78
2022/12/04 05:13:06;;;;;;;41.72;19.92;;;8.30;70.00;;;;;;7369877;19;20035;-78
2022/12/04 05:15:35;;;;;;;43.47;19.88;;;8.30;69.80;;;;;;7391845;19;20564;-78
2022/12/04 05:18:04;;;;;;;48.50;20.17;;;8.30;69.90;;;;;;7368601;19;20118;-78
2022/12/04 05:20:35;;;;;;;47.05;19.38;;;8.30;70.00;;;;;;7369453;19;20015;-79
2022/12/04 05:23:03;;;;;;;;;;;8.30;69.90;;;;;;7371603;19;20070;-79
2022/12/04 05:25:32;;;;;;;42.05;18.52;;;8.30;70.00;;;;;;7371135;19;19993;-78
2022/12/04 05:28:01;;;;;;;42.53;18.90;;;8.30;69.90;;;;;;7369238;19;20014;-78
2022/12/04 05:30:30;;;;;;;45.08;19.95;;;8.30;70.10;;;;;;7388991;19;20596;-80
2022/12/04 05:32:58;;;;;;;43.33;20.17;;;8.30;70.00;;;;;;7370324;19;20015;-78
2022/12/04 05:35:27;;;;;;;48.05;19.23;;;8.40;70.20;;;;;;7369037;19;20094;-78
2022/12/04 05:37:58;;;;;;;49.60;20.55;;;8.40;70.00;;;;;;7371277;19;20035;-79
2022/12/04 05:40:27;;;;;;;;;;;8.30;69.90;;;;;;7370845;19;20090;-79
2022/12/04 05:42:55;;;;;;;47.28;18.77;;;8.40;70.20;;;;;;7370215;19;20025;-78
2022/12/04 05:45:24;;;;;;;50.25;20.63;;;8.40;70.10;;;;;;7393054;19;20093;-78
2022/12/04 05:47:53;;;;;;;49.72;20.27;;;8.40;70.10;;;;;;7379718;19;20014;-78
2022/12/04 05:50:21;;;;;;;39.42;18.92;;;8.30;69.90;;;;;;7372698;19;20038;-78
2022/12/04 05:52:50;;;;;;;46.65;19.52;;;8.40;70.00;;;;;;7368924;19;20097;-78
2022/12/04 05:55:21;;;;;;;46.60;20.83;;;8.40;70.20;;;;;;7368037;19;20081;-78
2022/12/04 05:57:50;;;;;;;48.22;18.98;;;8.40;70.20;;;;;;7369457;19;20461;-78
2022/12/04 06:00:20;;;;;;;48.47;20.92;;;8.40;70.30;;;;;;7388032;19;20018;-78
2022/12/04 06:02:48;;;;;;;50.45;21.50;;;8.50;70.20;;;;;;7367927;19;20077;-78
2022/12/04 06:05:17;;;;;;;54.17;21.38;;;8.40;70.00;;;;;;7368563;19;20101;-78
2022/12/04 06:07:46;;;;;;;46.22;21.27;;;8.40;69.70;;;;;;7370525;19;20497;-78
2022/12/04 06:10:15;;;;;;;48.00;20.95;;;8.30;69.90;;;;;;7367654;19;20025;-78
2022/12/04 06:12:46;;;;;;;48.05;20.40;;;8.30;70.00;;;;;;7367251;19;20031;-78
2022/12/04 06:15:15;;;;;;;48.63;20.70;;;8.30;70.20;;;;;;7389621;19;20476;-78
2022/12/04 06:17:43;;;;;;;49.88;21.92;;;8.30;70.30;;;;;;7367740;19;20018;-79
2022/12/04 06:20:13;;;;;;;48.55;21.25;;;8.30;70.30;;;;;;7367837;19;20018;-78
2022/12/04 06:22:42;;;;;;;50.20;20.98;;;8.30;70.30;;;;;;7369459;19;20014;-78
2022/12/04 06:25:12;;;;;;;58.10;21.50;;;8.30;70.20;;;;;;7365220;19;20430;-78
2022/12/04 06:27:41;;;;;;;54.10;21.15;;;8.30;70.20;;;;;;7367241;19;20098;-78
2022/12/04 06:30:14;;;;;;;53.33;21.58;;;8.30;70.20;;;;;;7389149;19;20018;-78
2022/12/04 06:32:43;;;;;;;53.78;21.75;;;8.30;70.40;;;;;;7371681;19;20015;-79
2022/12/04 06:35:11;;;;;;;51.55;21.48;;;8.30;70.50;;;;;;7374739;19;20074;-79
2022/12/04 06:37:40;;;;;;;50.80;22.38;;;8.30;70.30;;;;;;7375095;19;20069;-79
2022/12/04 06:40:10;;;;;;;59.45;23.40;;;8.30;70.30;;;;;;7373979;19;20015;-80
2022/12/04 06:42:39;;;;;;;54.45;22.85;;;8.30;70.40;;;;;;7373473;19;20025;-78
2022/12/04 06:45:09;;;;;;;57.90;22.67;;;8.30;70.30;;;;;;7392868;19;20057;-78
2022/12/04 06:47:40;;;;;;;58.33;23.10;;;8.30;70.30;;;;;;7374691;19;20007;-78
2022/12/04 06:50:10;;;;;;;60.22;21.77;;;8.30;70.30;;;;;;7374391;19;20021;-78
2022/12/04 06:52:39;;;;;;;53.63;22.75;;;8.40;70.30;;;;;;7375633;19;20078;-78
2022/12/04 06:55:09;;;;;;;59.75;24.65;;;8.30;70.30;;;;;;7373472;19;20062;-78
2022/12/04 06:57:37;;;;;;;61.38;23.90;;;8.40;70.40;;;;;;7371434;19;20054;-78
2022/12/04 07:00:08;;;;;;;59.03;23.15;;;8.40;70.40;;;;;;7392776;19;20022;-78
2022/12/04 07:02:36;;;;;;;54.17;22.80;;;8.40;70.30;;;;;;7373467;19;20023;-79
2022/12/04 07:05:12;;;;;;;52.78;23.25;;;8.40;70.30;;;;;;7372526;19;20014;-78
2022/12/04 07:07:40;;;;;;;59.97;23.20;;;8.40;70.30;;;;;;7373297;19;20070;-78
2022/12/04 07:10:10;;;;;;;60.88;24.38;;;8.40;70.30;;;;;;7372217;19;20043;-78
2022/12/04 07:12:39;;;;;;;55.75;24.23;;;8.40;70.30;;;;;;7372971;19;20022;-78
2022/12/04 07:15:08;;;;;;;56.58;23.20;;;8.40;70.20;;;;;;7394962;19;20383;-78
2022/12/04 07:17:37;;;;;;;62.95;23.67;;;8.40;70.40;;;;;;7372721;19;20035;-78
2022/12/04 07:20:10;;;;;;;53.10;22.60;;;8.30;70.50;;;;;;7371965;19;20081;-78
2022/12/04 07:22:39;;;;;;;61.10;25.00;;;8.30;70.80;;;;;;7378173;19;20089;-79
2022/12/04 07:25:08;;;;;;;57.30;24.23;;;8.40;70.90;;;;;;7375986;19;20019;-79
2022/12/04 07:27:36;;;;;;;58.95;24.35;;;8.30;70.70;;;;;;7390283;19;20453;-78
2022/12/04 07:30:05;;;;;;;62.40;25.10;;;8.40;70.80;;;;;;7397194;19;20490;-79
2022/12/04 07:32:34;;;;;;;60.67;25.88;;;8.40;70.90;;;;;;7376658;19;20385;-80
2022/12/04 07:35:03;;;;;;;61.50;25.67;;;8.50;70.90;;;;;;7378539;19;20078;-79
2022/12/04 07:37:37;;;;;;;68.97;26.80;;;8.50;70.80;;;;;;7376701;19;20018;-80
2022/12/04 07:40:07;;;;;;;64.97;25.55;;;8.40;70.90;;;;;;7372580;19;20024;-79
2022/12/04 07:42:35;;;;;;;67.78;27.02;;;8.40;71.30;;;;;;7391645;19;20093;-79
2022/12/04 07:45:04;;;;;;;53.95;24.40;;;8.40;71.10;;;;;;7394877;19;20073;-79
2022/12/04 07:47:33;;;;;;;66.60;25.95;;;8.40;71.00;;;;;;7371611;19;20097;-79
2022/12/04 07:50:02;;;;;;;62.83;25.60;;;8.40;70.80;;;;;;7373844;19;20117;-78
2022/12/04 07:52:30;;;;;;;64.75;26.50;;;8.50;70.90;;;;;;7373841;19;20014;-78
2022/12/04 07:55:02;;;;;;;65.90;25.73;;;8.40;70.80;;;;;;7373589;19;20029;-78
2022/12/04 07:57:31;;;;;;;58.88;25.90;;;8.40;71.10;;;;;;7394712;19;20006;-78
2022/12/04 07:59:59;;;;;;;67.97;27.08;;;8.40;71.00;;;;;;7371898;19;20010;-78
2022/12/04 08:02:28;;;;;;;68.95;25.48;;;8.40;70.90;;;;;;7370934;19;20318;-78
2022/12/04 08:04:57;;;;;;;64.18;26.40;;;8.40;70.90;;;;;;7373789;19;20019;-80
2022/12/04 08:07:26;;;;;;;71.43;27.52;;;8.50;70.90;;;;;;7375984;19;20129;-79
2022/12/04 08:09:54;;;;;;;67.90;27.55;;;8.40;70.60;;;;;;7372293;19;20086;-78
2022/12/04 08:12:26;;;;;;;68.38;26.90;;;8.50;70.90;;;;;;7390316;19;20078;-78
2022/12/04 08:14:54;;;;;;;62.58;27.95;;;8.50;71.20;;;;;;7371043;19;20098;-78
2022/12/04 08:17:23;;;;;;;291.55;35.95;;;8.50;71.50;;;;;;7372517;19;20006;-79
2022/12/04 08:19:52;;;;;;;67.32;27.33;;;8.60;71.90;;;;;;7370767;19;20025;-79
2022/12/04 08:22:20;;;;;;;65.57;27.33;;;8.60;72.10;;;;;;7371211;19;20017;-78
2022/12/04 08:24:50;;;;;;;62.58;26.38;;;8.60;72.00;;;;;;7371187;19;20150;-78
2022/12/04 08:27:18;;;;;;;61.17;27.25;;;8.60;71.60;;;;;;7395380;19;20025;-78
2022/12/04 08:29:50;;;;;;;61.72;25.92;;;8.60;71.70;;;;;;7371317;19;20502;-78
2022/12/04 08:32:18;;;;;;;;;;;8.60;71.60;;;;;;7375646;19;20433;-80
2022/12/04 08:34:47;;;;;;;63.63;25.65;;;8.60;71.70;;;;;;7381720;19;19931;-81
2022/12/04 08:37:16;;;;;;;65.53;27.02;;;8.60;71.60;;;;;;7406452;19;20022;-80
2022/12/04 08:39:44;;;;;;;66.15;27.63;;;8.60;71.80;;;;;;7407262;19;20003;-79
2022/12/04 08:42:13;;;;;;;62.55;25.67;;;8.60;72.00;;;;;;7427754;19;20018;-79
2022/12/04 08:44:42;;;;;;;67.78;27.63;;;8.60;72.20;;;;;;7402228;19;20035;-80
2022/12/04 08:47:13;;;;;;;69.00;26.35;;;8.60;71.70;;;;;;7405824;19;20011;-81
2022/12/04 08:49:42;;;;;;;70.68;28.85;;;8.60;72.70;;;;;;7401915;19;20014;-82
2022/12/04 08:52:11;;;;;;;73.40;27.67;;;8.60;72.10;;;;;;7402410;19;20010;-82
2022/12/04 08:54:40;;;;;;;67.95;26.48;;;8.70;72.00;;;;;;7383332;19;20017;-81
2022/12/04 08:57:08;;;;;;;73.88;28.95;;;8.70;71.70;;;;;;7389736;19;20479;-78
2022/12/04 08:59:37;;;;;;;66.05;26.27;;;8.70;71.80;;;;;;7370709;19;20017;-78
2022/12/04 09:02:06;;;;;;;78.07;28.55;;;8.70;71.80;;;;;;7369558;19;20015;-78
2022/12/04 09:04:42;;;;;;;62.63;26.70;;;8.70;71.90;;;;;;7371689;19;20007;-79
2022/12/04 09:07:10;;;;;;;64.57;28.20;;;8.70;72.20;;;;;;7373133;19;20010;-78
2022/12/04 09:09:39;;;;;;;74.32;27.45;;;8.70;72.20;;;;;;7372416;19;20082;-78
2022/12/04 09:12:08;;;;;;;66.63;27.40;;;8.80;72.30;;;;;;7389748;19;20022;-78
2022/12/04 09:14:38;;;;;;;70.35;27.45;;;8.80;72.30;;;;;;7370695;19;20450;-78
2022/12/04 09:17:06;;;;;;;64.00;26.52;;;8.80;72.20;;;;;;7369738;19;20462;-78
2022/12/04 09:19:38;;;;;;;71.60;28.98;;;8.90;72.10;;;;;;7370640;19;20022;-77
2022/12/04 09:22:06;;;;;;;;;;;8.90;72.00;;;;;;7371075;19;20018;-78
2022/12/04 09:24:35;;;;;;;71.15;27.40;;;8.90;72.20;;;;;;7390071;19;19990;-78
2022/12/04 09:27:04;;;;;;;74.20;29.20;;;8.90;72.60;;;;;;7369462;19;20078;-78
2022/12/04 09:29:33;;;;;;;74.00;28.80;;;8.90;72.80;;;;;;7370217;19;20434;-79
2022/12/04 09:32:02;;;;;;;75.38;29.40;;;8.90;72.90;;;;;;7369079;19;20507;-78
2022/12/04 09:34:31;;;;;;;76.68;31.20;;;8.80;72.90;;;;;;7368918;19;20014;-77
2022/12/04 09:37:02;;;;;;;71.90;30.40;;;8.80;73.20;;;;;;7367731;19;20626;-77
2022/12/04 09:39:31;;;;;;;81.57;30.58;;;8.80;73.50;;;;;;7389907;19;20029;-77
2022/12/04 09:42:33;;;;;;;73.85;29.50;;;8.90;73.60;;;;;;7369672;19;20122;-78
2022/12/04 09:45:04;;;;;;;;;;;8.90;74.70;;;;;;7369665;19;20082;-78
2022/12/04 09:47:39;;;;;;;78.20;28.98;;;9.00;73.80;;;;;;7369108;19;19938;-78
2022/12/04 09:50:13;;;;;;;73.45;29.10;;;9.00;73.50;;;;;;7370083;19;20078;-77
2022/12/04 09:52:51;;;;;;;69.32;28.02;;;9.00;73.50;;;;;;7369003;19;20074;-79
2022/12/04 09:55:24;;;;;;;83.95;30.67;;;8.90;73.30;;;;;;7370904;19;20081;-78
2022/12/04 09:57:56;;;;;;;70.00;28.48;;;8.90;73.30;;;;;;7371696;19;20018;-78
2022/12/04 10:00:25;;;;;;;75.65;29.65;;;9.00;73.60;;;;;;7393453;19;20026;-79
2022/12/04 10:02:57;;;;;;;74.65;30.15;;;9.00;73.60;;;;;;7368248;19;20035;-79
2022/12/04 10:05:40;;;;;;;69.13;29.55;;;9.00;73.70;;;;;;7372074;19;20013;-78
2022/12/04 10:08:17;;;;;;;70.97;29.20;;;9.00;73.30;;;;;;7373804;19;20020;-78
2022/12/04 10:10:51;;;;;;;73.85;28.83;;;9.00;73.20;;;;;;7379033;19;20418;-78
2022/12/04 10:13:36;;;;;;;76.05;30.40;;;9.00;73.30;;;;;;7378855;19;20074;-79
2022/12/04 10:16:09;;;;;;;73.28;29.25;;;9.10;73.30;;;;;;7374847;19;20508;-78
2022/12/04 10:18:49;;;;;;;74.68;29.85;;;9.10;73.00;;;;;;7370184;19;20038;-78
2022/12/04 10:21:36;;;;;;;72.43;29.77;;;9.10;72.80;;;;;;7394529;19;20046;-79
2022/12/04 10:24:24;;;;;;;74.05;29.63;;;9.10;72.60;;;;;;7374009;19;20014;-79
2022/12/04 10:26:56;;;;;;;70.25;29.08;;;9.10;72.60;;;;;;7373914;19;20434;-78
2022/12/04 10:29:28;;;;;;;156.15;31.83;;;9.10;72.30;;;;;;7374336;19;20162;-82
2022/12/04 10:32:15;;;;;;;62.65;27.30;;;9.10;72.50;;;;;;7375797;19;20080;-82
2022/12/04 10:34:45;;;;;;;64.35;28.58;;;9.10;72.30;;;;;;7375915;19;20098;-81
2022/12/04 10:37:15;;;;;;;67.63;27.83;;;9.10;72.20;;;;;;7377069;19;20404;-80
2022/12/04 10:39:52;;;;;;;68.70;28.02;;;9.10;72.50;;;;;;7375335;19;20022;-85
2022/12/04 10:42:28;;;;;;;70.18;29.83;;;9.20;72.20;;;;;;7394857;19;20035;-82
2022/12/04 10:44:57;;;;;;;62.50;28.02;;;9.20;72.10;;;;;;7374159;19;20332;-84
2022/12/04 10:47:27;;;;;;;74.22;29.00;;;9.20;72.20;;;;;;7372397;19;20092;-83
2022/12/04 10:50:01;;;;;;;70.93;28.90;;;9.20;71.90;;;;;;7373587;19;20556;-83
2022/12/04 10:52:30;;;;;;;75.80;31.02;;;9.20;71.90;;;;;;7379098;19;20427;-85
2022/12/04 10:55:03;;;;;;;72.95;30.52;;;9.20;72.10;;;;;;7375935;19;20031;-85
2022/12/04 10:57:41;;;;;;;61.83;27.25;;;9.20;71.90;;;;;;7398000;19;20019;-85
2022/12/04 11:00:27;;;;;;;67.28;28.17;;;9.20;71.40;;;;;;7378457;19;20015;-85
2022/12/04 11:02:57;;;;;;;69.10;27.58;;;9.10;71.30;;;;;;7378678;19;20014;-86
2022/12/04 11:05:30;;;;;;;68.82;29.35;;;9.20;71.40;;;;;;7376051;19;20028;-86
2022/12/04 11:08:00;;;;;;;70.75;29.48;;;9.10;71.40;;;;;;7379781;19;20022;-85
2022/12/04 11:10:36;;;;;;;64.85;27.35;;;9.20;71.90;;;;;;7381085;19;20022;-84
2022/12/04 11:13:08;;;;;;;65.05;27.83;;;9.20;72.00;;;;;;7380485;19;20038;-86
2022/12/04 11:15:44;;;;;;;70.30;28.90;;;9.20;72.10;;;;;;7393060;19;20018;-85
2022/12/04 11:18:19;;;;;;;65.95;27.60;;;9.20;72.00;;;;;;7425093;19;20019;-85
2022/12/04 11:20:53;;;;;;;69.15;28.48;;;9.30;72.00;;;;;;7400662;19;20011;-84
2022/12/04 11:23:23;;;;;;;74.00;27.65;;;9.30;71.80;;;;;;7392487;19;20010;-85
2022/12/04 11:25:56;;;;;;;78.47;29.73;;;9.30;71.30;;;;;;7383691;19;20035;-86
2022/12/04 11:28:29;;;;;;;77.00;30.58;;;9.30;71.10;;;;;;7380886;19;20019;-88
2022/12/04 11:31:00;;;;;;;66.47;27.52;;;9.30;71.40;;;;;;7383590;19;20080;-88
2022/12/04 11:33:34;;;;;;;68.03;27.20;;;9.30;71.70;;;;;;7403731;19;20018;-86
2022/12/04 11:36:05;;;;;;;66.38;26.08;;;9.30;71.60;;;;;;7377559;19;20011;-83
2022/12/04 11:38:35;;;;;;;;;;;9.30;71.70;;;;;;7375834;19;20023;-86
2022/12/04 11:41:07;;;;;;;61.80;25.35;;;9.40;72.00;;;;;;7373384;19;19931;-84
2022/12/04 11:43:37;;;;;;;79.03;31.38;;;9.40;71.90;;;;;;7372207;19;20011;-84
2022/12/04 11:46:08;;;;;;;70.18;29.55;;;9.40;72.10;;;;;;7374358;19;20018;-83
2022/12/04 11:48:45;;;;;;;70.07;28.85;;;9.40;72.40;;;;;;7387795;19;20018;-85
2022/12/04 11:51:28;;;;;;;74.57;28.65;;;9.40;72.50;;;;;;7400496;19;20093;-87
2022/12/04 11:54:01;;;;;;;76.13;30.90;;;9.40;72.60;;;;;;7376529;19;20015;-86
2022/12/04 11:56:35;;;;;;;68.40;28.35;;;9.40;72.50;;;;;;7373120;19;20022;-82
2022/12/04 11:59:28;;;;;;;65.45;26.95;;;9.40;72.60;;;;;;7375237;19;20010;-83
2022/12/04 12:02:07;;;;;;;78.43;29.48;;;9.40;72.80;;;;;;7376162;19;20015;-85
2022/12/04 12:05:03;;;;;;;80.05;31.00;;;9.40;72.90;;;;;;7372745;19;20040;-83
2022/12/04 12:07:42;;;;;;;77.10;29.98;;;9.40;73.20;;;;;;7374796;19;20022;-85
2022/12/04 12:10:18;;;;;;;82.53;31.63;;;9.40;73.20;;;;;;7377031;19;20110;-84
2022/12/04 12:13:00;;;;;;;62.70;26.67;;;9.40;73.20;;;;;;7378358;19;20081;-82
2022/12/04 12:15:41;;;;;;;68.30;27.10;;;9.40;73.00;;;;;;7399600;19;20019;-84
2022/12/04 12:18:29;;;;;;;75.63;29.52;;;9.40;73.10;;;;;;7377287;19;20031;-86
2022/12/04 12:21:04;;;;;;;88.40;31.63;;;9.40;73.40;;;;;;7374724;19;20018;-84
2022/12/04 12:23:55;;;;;;;73.32;29.77;;;9.40;73.60;;;;;;7377209;19;20015;-84
2022/12/04 12:26:31;;;;;;;75.57;29.83;;;9.40;73.80;;;;;;7376325;19;20010;-84
2022/12/04 12:29:16;;;;;;;72.38;30.25;;;9.40;73.60;;;;;;7373555;19;20093;-83
2022/12/04 12:32:03;;;;;;;71.53;27.75;;;9.50;73.80;;;;;;7376206;19;20040;-84
2022/12/04 12:34:39;;;;;;;68.90;28.17;;;9.50;73.80;;;;;;7378892;19;20014;-83
2022/12/04 12:37:17;;;;;;;69.03;27.98;;;9.50;73.50;;;;;;7374718;19;20010;-87
2022/12/04 12:39:52;;;;;;;81.78;31.60;;;9.60;73.40;;;;;;7368730;19;20039;-82
2022/12/04 12:42:26;;;;;;;76.57;30.33;;;9.60;73.30;;;;;;7408095;19;20121;-78
2022/12/04 12:45:04;;;;;;;68.63;27.45;;;9.60;73.10;;;;;;7386733;19;20072;-80
2022/12/04 12:47:41;;;;;;;64.80;27.52;;;9.60;73.10;;;;;;7389986;19;20046;-81
2022/12/04 12:50:17;;;;;;;67.00;28.13;;;9.50;72.60;;;;;;7383122;19;20020;-79
2022/12/04 12:52:52;;;;;;;65.05;26.75;;;9.40;72.60;;;;;;7376310;19;20049;-79
2022/12/04 12:55:26;;;;;;;70.00;28.48;;;9.40;72.60;;;;;;7374869;19;20014;-81
2022/12/04 12:58:03;;;;;;;69.00;27.70;;;9.40;72.70;;;;;;7375799;19;20054;-82
2022/12/04 13:00:41;;;;;;;61.10;26.55;;;9.40;73.30;;;;;;7398923;19;20055;-82
2022/12/04 13:03:27;;;;;;;67.13;27.00;;;9.40;73.20;;;;;;7373135;19;20438;-80
2022/12/04 13:06:01;;;;;;;68.88;27.95;;;9.50;73.20;;;;;;7367956;19;20015;-80
2022/12/04 13:08:34;;;;;;;68.30;25.77;;;9.50;72.90;;;;;;7369688;19;20031;-78
2022/12/04 13:11:07;;;;;;;57.05;24.80;;;9.60;72.70;;;;;;7369296;19;20014;-78
2022/12/04 13:13:40;;;;;;;70.63;24.63;;;9.50;72.10;;;;;;7372575;19;20120;-78
2022/12/04 13:16:18;;;;;;;60.60;24.60;;;9.50;72.50;;;;;;7369647;19;20019;-78
2022/12/04 13:18:52;;;;;;;63.67;26.20;;;9.50;72.50;;;;;;7365911;19;20474;-78